Предлагаем Вашему вниманию английскую версию страницы: AUTOTAF.ME UNIP - aviation weather forecast Podkamennaya Tunguska

AUTOTAF UNIP - авиапрогноз Подкаменная Тунгуска

Сегодня рассвет 01:57 UTC, восход солнца 02:52 UTC,
местный полдень 06:10 UTC, заход солнца 09:28 UTC,
наступление темноты 10:24 UTC.

Краткий прогноз UNIP на 9 часов

AUTOTAF.ME UNIP 190200Z 1903/1912 26003MPS 9999 OVC010    
  BECMG 1904/1906 -SN    
  BECMG 1910/1912 OVC006

Детальный прогноз UNIP на 24 часа

AUTOTAF.ME UNIP 190200Z 1903/2003 26003MPS 9999 OVC010 TXM19/1903Z TNM25/2003Z  
  BECMG 1904/1906 -SN    
  BECMG 1910/1912 OVC006   
  FM191800 VRB02MPS 1000 BR OVC007 
  BECMG 1919/1921 SKC  
  FM200000 VRB02MPS 1000 BR FEW160

Подробный табличный прогноз

Время (UTC) miniAUTOTAF на 3 ч WX FZLVL
M AGL
ICE TURB Т
(°С)
Тd
(°С)
f(%) QNH
(гПа)
WIND/T
19.01.2021
00 27003MPS 2000 SN OVC001 SN SFC MOD FL20/FL50 MOD SFC/FL30 -22 -22 97 1003 ...
03 26003MPS 9999 OVC010 SFC MOD SFC/FL30 -19 -24 66 1004 ...
06 26004MPS 9999 -SN BKN011 -SN SFC MOD SFC/FL30 -21 -27 59 1007 ...
09 25004MPS 9999 OVC011 SFC MOD SFC/FL30 -22 -29 55 1009 ...
12 VRB02MPS 9999 OVC006 SFC MOD SFC/FL30 -23 -30 54 1012 ...
15 VRB02MPS 9999 OVC006 SFC -23 -30 54 1013 ...
18 VRB02MPS 1000 BR OVC007 BR SFC -23 -30 57 1017 ...
21 VRB02MPS 1000 BR SKC BR SFC -24 -29 61 1019 ...
20.01.2021
00 VRB02MPS 1000 BR FEW160 BR SFC -24 -29 63 1022 ...
03 VRB02MPS 1000 BR BKN120 BR SFC -25 -31 60 1024 ...
06 20003MPS 9999 BKN100 SFC MOD SFC/FL20 -26 -32 57 1026 ...
09 21003MPS 9999 SKC SFC MOD SFC/FL20 -26 -32 55 1027 ...
12 22003MPS 9999 SKC SFC MOD SFC/FL20 -26 -32 56 1028 ...
15 VRB02MPS 9999 SKC SFC MOD SFC/FL20 -26 -32 57 1029 ...
18 VRB02MPS 1000 BR FEW090 BR SFC -27 -32 60 1030 ...
21 VRB02MPS 1000 BR SKC BR SFC -27 -32 66 1031 ...


Широта 61.59152°, долгота 89.99889°, высота 87 м абс.
Средняя высота рельефа местности 134 м абс.
Прогнозы обновляются четыре раза в сутки: в 02, 08, 14, 20 ч всемирного времени.


Выбрать прогноз по другой модели Подкаменная Тунгуска
Онлайн-сводка гроз по Подкаменная Тунгуска (для РФ и ближнего зарубежья)
Карта фактических гроз в окрестностях Подкаменная Тунгуска
Динамические прогностические карты (ventusky.com)
Прогностическая карта высоты нижней границы облаков по Подкаменная Тунгуска (windy.com)
Выбрать другой город

Прогноз предназначен для личного научно-познавательного использования частными лицами
и не предназначен для принятия важных решений и выполнения реальных полётов воздушных судов

При копировании или ином использовании любых материалов данного сайта ссылка на © meteocenter.asia обязательна.

0.59/1